sensor_id;sensor_type;location;lat;lon;timestamp;pressure;altitude;pressure_sealevel;temperature;humidity
23253;BME280;11795;47.054;15.408;2023-08-07T00:00:00;96690;;;14.5;74.6
23253;BME280;11795;47.054;15.408;2023-08-07T00:02:00;96700;;;14.7;74.0
23253;BME280;11795;47.054;15.408;2023-08-07T00:04:01;96700;;;14.4;74.3
23253;BME280;11795;47.054;15.408;2023-08-07T00:06:00;96690;;;14.3;74.8
23253;BME280;11795;47.054;15.408;2023-08-07T00:08:00;96700;;;14.5;74.2
23253;BME280;11795;47.054;15.408;2023-08-07T00:10:01;96690;;;14.4;74.5
23253;BME280;11795;47.054;15.408;2023-08-07T00:12:00;96700;;;14.5;73.9
23253;BME280;11795;47.054;15.408;2023-08-07T00:14:01;96700;;;14.4;74.2
23253;BME280;11795;47.054;15.408;2023-08-07T00:16:00;96700;;;14.3;74.6
23253;BME280;11795;47.054;15.408;2023-08-07T00:18:00;96700;;;14.5;74.0
23253;BME280;11795;47.054;15.408;2023-08-07T00:20:00;96700;;;14.3;75.3
23253;BME280;11795;47.054;15.408;2023-08-07T00:22:02;96700;;;14.5;74.7
23253;BME280;11795;47.054;15.408;2023-08-07T00:24:00;96700;;;14.4;74.7
23253;BME280;11795;47.054;15.408;2023-08-07T00:26:00;96700;;;14.3;75.3
23253;BME280;11795;47.054;15.408;2023-08-07T00:28:00;96700;;;14.5;75.0
23253;BME280;11795;47.054;15.408;2023-08-07T00:30:00;96700;;;14.4;75.4
23253;BME280;11795;47.054;15.408;2023-08-07T00:32:00;96710;;;14.6;75.1
23253;BME280;11795;47.054;15.408;2023-08-07T00:34:00;96710;;;14.5;75.3
23253;BME280;11795;47.054;15.408;2023-08-07T00:36:00;96710;;;14.3;76.1
23253;BME280;11795;47.054;15.408;2023-08-07T00:38:00;96710;;;14.5;75.5
23253;BME280;11795;47.054;15.408;2023-08-07T00:40:00;96710;;;14.3;76.1
23253;BME280;11795;47.054;15.408;2023-08-07T00:42:00;96710;;;14.5;76.1
23253;BME280;11795;47.054;15.408;2023-08-07T00:44:00;96710;;;14.3;76.6
23253;BME280;11795;47.054;15.408;2023-08-07T00:46:01;96700;;;14.2;77.1
23253;BME280;11795;47.054;15.408;2023-08-07T00:48:01;96710;;;14.4;76.6
23253;BME280;11795;47.054;15.408;2023-08-07T00:50:02;96700;;;14.2;77.1
23253;BME280;11795;47.054;15.408;2023-08-07T00:52:01;96700;;;14.4;76.7
23253;BME280;11795;47.054;15.408;2023-08-07T00:54:03;96700;;;14.3;76.7
23253;BME280;11795;47.054;15.408;2023-08-07T00:56:02;96690;;;14.2;77.0
23253;BME280;11795;47.054;15.408;2023-08-07T00:58:00;96700;;;14.4;76.3
23253;BME280;11795;47.054;15.408;2023-08-07T01:00:02;96700;;;14.2;76.7
23253;BME280;11795;47.054;15.408;2023-08-07T01:02:00;96710;;;14.3;76.4
23253;BME280;11795;47.054;15.408;2023-08-07T01:04:00;96700;;;14.2;76.3
23253;BME280;11795;47.054;15.408;2023-08-07T01:06:01;96700;;;14.1;76.6
23253;BME280;11795;47.054;15.408;2023-08-07T01:08:01;96690;;;14.2;76.3
23253;BME280;11795;47.054;15.408;2023-08-07T01:10:04;96700;;;14.0;77.1
23253;BME280;11795;47.054;15.408;2023-08-07T01:12:09;96690;;;14.1;76.4
23253;BME280;11795;47.054;15.408;2023-08-07T01:14:05;96700;;;14.1;76.6
23253;BME280;11795;47.054;15.408;2023-08-07T01:16:04;96700;;;14.0;76.9
23253;BME280;11795;47.054;15.408;2023-08-07T01:18:01;96700;;;14.2;76.3
23253;BME280;11795;47.054;15.408;2023-08-07T01:20:01;96700;;;14.0;77.0
23253;BME280;11795;47.054;15.408;2023-08-07T01:22:05;96700;;;14.1;77.2
23253;BME280;11795;47.054;15.408;2023-08-07T01:24:01;96700;;;13.9;77.4
23253;BME280;11795;47.054;15.408;2023-08-07T01:26:00;96700;;;13.7;78.1
23253;BME280;11795;47.054;15.408;2023-08-07T01:28:06;96700;;;13.8;77.7
23253;BME280;11795;47.054;15.408;2023-08-07T01:30:09;96700;;;13.6;78.6
23253;BME280;11795;47.054;15.408;2023-08-07T01:32:03;96700;;;13.8;78.3
23253;BME280;11795;47.054;15.408;2023-08-07T01:34:04;96700;;;13.7;78.2
23253;BME280;11795;47.054;15.408;2023-08-07T01:36:02;96700;;;13.6;78.4
23253;BME280;11795;47.054;15.408;2023-08-07T01:38:01;96700;;;13.8;77.8
23253;BME280;11795;47.054;15.408;2023-08-07T01:40:01;96690;;;13.6;78.2
23253;BME280;11795;47.054;15.408;2023-08-07T01:42:03;96690;;;13.7;78.3
23253;BME280;11795;47.054;15.408;2023-08-07T01:44:01;96690;;;13.7;77.9
23253;BME280;11795;47.054;15.408;2023-08-07T01:46:01;96690;;;13.5;78.3
23253;BME280;11795;47.054;15.408;2023-08-07T01:48:00;96700;;;13.6;78.1
23253;BME280;11795;47.054;15.408;2023-08-07T01:50:00;96700;;;13.3;79.2
23253;BME280;11795;47.054;15.408;2023-08-07T01:52:00;96700;;;13.4;79.4
23253;BME280;11795;47.054;15.408;2023-08-07T01:54:00;96700;;;13.3;79.5
23253;BME280;11795;47.054;15.408;2023-08-07T01:56:00;96700;;;13.2;79.8
23253;BME280;11795;47.054;15.408;2023-08-07T01:58:00;96710;;;13.4;79.3
23253;BME280;11795;47.054;15.408;2023-08-07T02:00:00;96710;;;13.2;79.6
23253;BME280;11795;47.054;15.408;2023-08-07T02:02:00;96710;;;13.3;79.8
23253;BME280;11795;47.054;15.408;2023-08-07T02:04:00;96710;;;13.2;79.7
23253;BME280;11795;47.054;15.408;2023-08-07T02:06:02;96710;;;13.1;80.2
23253;BME280;11795;47.054;15.408;2023-08-07T02:08:00;96710;;;13.2;79.9
23253;BME280;11795;47.054;15.408;2023-08-07T02:10:00;96710;;;13.0;80.9
23253;BME280;11795;47.054;15.408;2023-08-07T02:12:01;96710;;;13.1;81.1
23253;BME280;11795;47.054;15.408;2023-08-07T02:14:00;96710;;;13.0;81.1
23253;BME280;11795;47.054;15.408;2023-08-07T02:16:00;96710;;;12.9;81.4
23253;BME280;11795;47.054;15.408;2023-08-07T02:18:00;96710;;;13.1;81.0
23253;BME280;11795;47.054;15.408;2023-08-07T02:20:00;96710;;;12.9;81.5
23253;BME280;11795;47.054;15.408;2023-08-07T02:22:01;96700;;;13.0;81.5
23253;BME280;11795;47.054;15.408;2023-08-07T02:24:00;96710;;;12.9;81.4
23253;BME280;11795;47.054;15.408;2023-08-07T02:26:01;96710;;;12.9;81.2
23253;BME280;11795;47.054;15.408;2023-08-07T02:28:00;96710;;;13.0;80.7
23253;BME280;11795;47.054;15.408;2023-08-07T02:30:03;96710;;;12.9;81.1
23253;BME280;11795;47.054;15.408;2023-08-07T02:32:01;96700;;;12.8;81.6
23253;BME280;11795;47.054;15.408;2023-08-07T02:34:01;96700;;;12.8;81.5
23253;BME280;11795;47.054;15.408;2023-08-07T02:36:00;96710;;;12.6;82.2
23253;BME280;11795;47.054;15.408;2023-08-07T02:38:00;96700;;;12.7;81.7
23253;BME280;11795;47.054;15.408;2023-08-07T02:40:00;96700;;;12.6;82.3
23253;BME280;11795;47.054;15.408;2023-08-07T02:42:01;96700;;;12.6;82.4
23253;BME280;11795;47.054;15.408;2023-08-07T02:44:00;96700;;;12.6;81.7
23253;BME280;11795;47.054;15.408;2023-08-07T02:46:00;96710;;;12.5;81.7
23253;BME280;11795;47.054;15.408;2023-08-07T02:48:00;96710;;;12.5;81.4
23253;BME280;11795;47.054;15.408;2023-08-07T02:50:00;96710;;;12.3;82.3
23253;BME280;11795;47.054;15.408;2023-08-07T02:52:01;96710;;;12.3;82.6
23253;BME280;11795;47.054;15.408;2023-08-07T02:54:00;96700;;;12.3;82.5
23253;BME280;11795;47.054;15.408;2023-08-07T02:56:00;96700;;;12.2;82.9
23253;BME280;11795;47.054;15.408;2023-08-07T02:58:00;96700;;;12.4;82.1
23253;BME280;11795;47.054;15.408;2023-08-07T03:00:00;96700;;;12.2;82.5
23253;BME280;11795;47.054;15.408;2023-08-07T03:02:00;96710;;;12.2;82.7
23253;BME280;11795;47.054;15.408;2023-08-07T03:04:00;96710;;;12.2;82.3
23253;BME280;11795;47.054;15.408;2023-08-07T03:06:01;96710;;;12.1;82.9
23253;BME280;11795;47.054;15.408;2023-08-07T03:08:00;96710;;;12.3;82.2
23253;BME280;11795;47.054;15.408;2023-08-07T03:10:00;96700;;;12.2;82.9
23253;BME280;11795;47.054;15.408;2023-08-07T03:12:04;96710;;;12.2;83.0
23253;BME280;11795;47.054;15.408;2023-08-07T03:14:00;96710;;;12.2;82.5
23253;BME280;11795;47.054;15.408;2023-08-07T03:16:01;96710;;;12.1;82.8
23253;BME280;11795;47.054;15.408;2023-08-07T03:18:00;96700;;;12.3;82.3
23253;BME280;11795;47.054;15.408;2023-08-07T03:20:00;96710;;;12.2;82.6
23253;BME280;11795;47.054;15.408;2023-08-07T03:22:00;96710;;;12.2;82.8
23253;BME280;11795;47.054;15.408;2023-08-07T03:24:00;96720;;;12.2;82.3
23253;BME280;11795;47.054;15.408;2023-08-07T03:26:03;96720;;;12.1;83.0
23253;BME280;11795;47.054;15.408;2023-08-07T03:28:00;96720;;;12.2;82.8
23253;BME280;11795;47.054;15.408;2023-08-07T03:30:00;96730;;;12.1;83.4
23253;BME280;11795;47.054;15.408;2023-08-07T03:32:00;96730;;;12.0;83.8
23253;BME280;11795;47.054;15.408;2023-08-07T03:34:00;96730;;;12.1;83.0
23253;BME280;11795;47.054;15.408;2023-08-07T03:36:00;96730;;;11.9;83.5
23253;BME280;11795;47.054;15.408;2023-08-07T03:38:00;96730;;;12.1;83.2
23253;BME280;11795;47.054;15.408;2023-08-07T03:40:00;96730;;;11.9;84.0
23253;BME280;11795;47.054;15.408;2023-08-07T03:42:00;96730;;;11.9;84.3
23253;BME280;11795;47.054;15.408;2023-08-07T03:44:00;96730;;;11.9;84.3
23253;BME280;11795;47.054;15.408;2023-08-07T03:46:00;96730;;;11.8;84.9
23253;BME280;11795;47.054;15.408;2023-08-07T03:48:01;96740;;;12.0;84.4
23253;BME280;11795;47.054;15.408;2023-08-07T03:50:01;96740;;;11.9;84.5
23253;BME280;11795;47.054;15.408;2023-08-07T03:52:00;96740;;;11.8;85.0
23253;BME280;11795;47.054;15.408;2023-08-07T03:54:00;96740;;;11.9;84.7
23253;BME280;11795;47.054;15.408;2023-08-07T03:56:00;96740;;;11.8;85.2
23253;BME280;11795;47.054;15.408;2023-08-07T03:58:00;96740;;;12.0;84.5
23253;BME280;11795;47.054;15.408;2023-08-07T04:00:00;96740;;;11.9;84.8
23253;BME280;11795;47.054;15.408;2023-08-07T04:02:00;96740;;;11.9;85.2
23253;BME280;11795;47.054;15.408;2023-08-07T04:04:00;96740;;;12.0;85.1
23253;BME280;11795;47.054;15.408;2023-08-07T04:06:02;96740;;;12.0;85.3
23253;BME280;11795;47.054;15.408;2023-08-07T04:08:00;96750;;;12.1;84.7
23253;BME280;11795;47.054;15.408;2023-08-07T04:10:00;96750;;;12.0;85.4
23253;BME280;11795;47.054;15.408;2023-08-07T04:12:00;96750;;;11.9;85.7
23253;BME280;11795;47.054;15.408;2023-08-07T04:14:00;96750;;;12.1;85.3
23253;BME280;11795;47.054;15.408;2023-08-07T04:16:02;96750;;;12.0;85.8
23253;BME280;11795;47.054;15.408;2023-08-07T04:18:01;96750;;;12.2;85.1
23253;BME280;11795;47.054;15.408;2023-08-07T04:20:00;96750;;;12.0;85.5
23253;BME280;11795;47.054;15.408;2023-08-07T04:22:00;96750;;;12.0;85.8
23253;BME280;11795;47.054;15.408;2023-08-07T04:24:00;96760;;;12.2;84.8
23253;BME280;11795;47.054;15.408;2023-08-07T04:26:00;96760;;;12.2;85.1
23253;BME280;11795;47.054;15.408;2023-08-07T04:28:00;96760;;;12.3;84.8
23253;BME280;11795;47.054;15.408;2023-08-07T04:30:00;96760;;;12.2;85.5
23253;BME280;11795;47.054;15.408;2023-08-07T04:32:00;96760;;;12.1;85.9
23253;BME280;11795;47.054;15.408;2023-08-07T04:34:00;96760;;;12.3;85.4
23253;BME280;11795;47.054;15.408;2023-08-07T04:36:00;96750;;;12.2;85.4
23253;BME280;11795;47.054;15.408;2023-08-07T04:38:01;96760;;;12.4;84.7
23253;BME280;11795;47.054;15.408;2023-08-07T04:40:00;96770;;;12.3;85.0
23253;BME280;11795;47.054;15.408;2023-08-07T04:42:00;96770;;;12.3;85.4
23253;BME280;11795;47.054;15.408;2023-08-07T04:44:00;96760;;;12.4;84.7
23253;BME280;11795;47.054;15.408;2023-08-07T04:46:00;96760;;;12.4;85.1
23253;BME280;11795;47.054;15.408;2023-08-07T04:48:00;96760;;;12.6;84.6
23253;BME280;11795;47.054;15.408;2023-08-07T04:50:00;96770;;;12.5;84.7
23253;BME280;11795;47.054;15.408;2023-08-07T04:52:01;96770;;;12.4;84.9
23253;BME280;11795;47.054;15.408;2023-08-07T04:54:01;96770;;;12.6;84.0
23253;BME280;11795;47.054;15.408;2023-08-07T04:56:00;96770;;;12.4;84.7
23253;BME280;11795;47.054;15.408;2023-08-07T04:58:00;96770;;;12.7;84.2
23253;BME280;11795;47.054;15.408;2023-08-07T05:00:00;96780;;;12.5;84.5
23253;BME280;11795;47.054;15.408;2023-08-07T05:02:00;96780;;;12.6;84.8
23253;BME280;11795;47.054;15.408;2023-08-07T05:04:01;96770;;;12.8;84.0
23253;BME280;11795;47.054;15.408;2023-08-07T05:06:01;96770;;;12.7;83.9
23253;BME280;11795;47.054;15.408;2023-08-07T05:08:01;96770;;;12.9;83.0
23253;BME280;11795;47.054;15.408;2023-08-07T05:10:01;96780;;;12.9;83.1
23253;BME280;11795;47.054;15.408;2023-08-07T05:12:00;96780;;;12.9;83.4
23253;BME280;11795;47.054;15.408;2023-08-07T05:14:00;96780;;;13.1;82.3
23253;BME280;11795;47.054;15.408;2023-08-07T05:16:00;96780;;;13.0;82.8
23253;BME280;11795;47.054;15.408;2023-08-07T05:18:00;96780;;;13.3;81.7
23253;BME280;11795;47.054;15.408;2023-08-07T05:20:01;96780;;;13.2;80.3
23253;BME280;11795;47.054;15.408;2023-08-07T05:22:01;96780;;;13.2;81.0
23253;BME280;11795;47.054;15.408;2023-08-07T05:24:00;96780;;;13.4;80.2
23253;BME280;11795;47.054;15.408;2023-08-07T05:26:00;96790;;;13.4;80.1
23253;BME280;11795;47.054;15.408;2023-08-07T05:28:00;96790;;;13.7;79.5
23253;BME280;11795;47.054;15.408;2023-08-07T05:30:00;96790;;;13.6;80.0
23253;BME280;11795;47.054;15.408;2023-08-07T05:32:00;96790;;;13.7;80.5
23253;BME280;11795;47.054;15.408;2023-08-07T05:34:00;96780;;;13.9;79.6
23253;BME280;11795;47.054;15.408;2023-08-07T05:36:00;96790;;;13.9;79.5
23253;BME280;11795;47.054;15.408;2023-08-07T05:38:00;96790;;;14.1;78.5
23253;BME280;11795;47.054;15.408;2023-08-07T05:40:01;96800;;;14.0;78.6
23253;BME280;11795;47.054;15.408;2023-08-07T05:42:00;96800;;;14.1;78.9
23253;BME280;11795;47.054;15.408;2023-08-07T05:44:00;96800;;;14.2;78.0
23253;BME280;11795;47.054;15.408;2023-08-07T05:46:00;96800;;;14.2;78.2
23253;BME280;11795;47.054;15.408;2023-08-07T05:48:00;96800;;;14.5;77.6
23253;BME280;11795;47.054;15.408;2023-08-07T05:50:01;96800;;;14.4;77.8
23253;BME280;11795;47.054;15.408;2023-08-07T05:52:00;96800;;;14.4;78.2
23253;BME280;11795;47.054;15.408;2023-08-07T05:54:00;96800;;;14.6;77.5
23253;BME280;11795;47.054;15.408;2023-08-07T05:56:00;96810;;;14.5;77.7
23253;BME280;11795;47.054;15.408;2023-08-07T05:58:00;96820;;;14.6;77.1
23253;BME280;11795;47.054;15.408;2023-08-07T06:00:01;96810;;;14.5;77.0
23253;BME280;11795;47.054;15.408;2023-08-07T06:02:00;96810;;;14.5;77.8
23253;BME280;11795;47.054;15.408;2023-08-07T06:04:01;96820;;;14.6;77.3
23253;BME280;11795;47.054;15.408;2023-08-07T06:06:01;96820;;;14.5;77.8
23253;BME280;11795;47.054;15.408;2023-08-07T06:08:01;96830;;;14.8;77.2
23253;BME280;11795;47.054;15.408;2023-08-07T06:10:00;96820;;;14.6;77.7
23253;BME280;11795;47.054;15.408;2023-08-07T06:12:00;96830;;;14.6;78.0
23253;BME280;11795;47.054;15.408;2023-08-07T06:14:01;96830;;;14.8;77.5
23253;BME280;11795;47.054;15.408;2023-08-07T06:16:00;96820;;;14.7;77.6
23253;BME280;11795;47.054;15.408;2023-08-07T06:18:00;96820;;;14.9;76.3
23253;BME280;11795;47.054;15.408;2023-08-07T06:20:00;96830;;;14.8;75.5
23253;BME280;11795;47.054;15.408;2023-08-07T06:22:00;96830;;;14.8;75.8
23253;BME280;11795;47.054;15.408;2023-08-07T06:24:04;96840;;;14.9;74.2
23253;BME280;11795;47.054;15.408;2023-08-07T06:26:04;96840;;;14.8;74.3
23253;BME280;11795;47.054;15.408;2023-08-07T06:28:00;96840;;;15.1;73.8
23253;BME280;11795;47.054;15.408;2023-08-07T06:30:02;96840;;;15.0;72.9
23253;BME280;11795;47.054;15.408;2023-08-07T06:32:00;96840;;;15.0;72.2
23253;BME280;11795;47.054;15.408;2023-08-07T06:34:00;96840;;;15.1;71.4
23253;BME280;11795;47.054;15.408;2023-08-07T06:36:01;96840;;;15.1;71.5
23253;BME280;11795;47.054;15.408;2023-08-07T06:38:00;96850;;;15.2;71.3
23253;BME280;11795;47.054;15.408;2023-08-07T06:40:01;96850;;;15.1;71.0
23253;BME280;11795;47.054;15.408;2023-08-07T06:42:01;96840;;;15.2;71.0
23253;BME280;11795;47.054;15.408;2023-08-07T06:44:00;96840;;;15.4;70.8
23253;BME280;11795;47.054;15.408;2023-08-07T06:46:00;96850;;;15.3;70.8
23253;BME280;11795;47.054;15.408;2023-08-07T06:48:00;96850;;;15.6;69.5
23253;BME280;11795;47.054;15.408;2023-08-07T06:50:00;96850;;;15.4;67.7
23253;BME280;11795;47.054;15.408;2023-08-07T06:52:00;96850;;;15.5;68.4
23253;BME280;11795;47.054;15.408;2023-08-07T06:54:00;96850;;;15.6;67.6
23253;BME280;11795;47.054;15.408;2023-08-07T06:56:00;96850;;;15.6;68.2
23253;BME280;11795;47.054;15.408;2023-08-07T06:58:00;96850;;;15.8;68.4
23253;BME280;11795;47.054;15.408;2023-08-07T07:00:00;96850;;;15.7;68.4
23253;BME280;11795;47.054;15.408;2023-08-07T07:02:00;96840;;;15.7;68.9
23253;BME280;11795;47.054;15.408;2023-08-07T07:04:00;96850;;;16.0;68.5
23253;BME280;11795;47.054;15.408;2023-08-07T07:06:00;96850;;;15.9;68.5
23253;BME280;11795;47.054;15.408;2023-08-07T07:08:00;96850;;;16.1;67.9
23253;BME280;11795;47.054;15.408;2023-08-07T07:10:01;96840;;;16.0;66.1
23253;BME280;11795;47.054;15.408;2023-08-07T07:12:00;96850;;;16.0;66.4
23253;BME280;11795;47.054;15.408;2023-08-07T07:14:00;96850;;;16.3;66.4
23253;BME280;11795;47.054;15.408;2023-08-07T07:16:00;96850;;;16.3;67.3
23253;BME280;11795;47.054;15.408;2023-08-07T07:18:00;96850;;;16.5;65.4
23253;BME280;11795;47.054;15.408;2023-08-07T07:20:00;96850;;;16.5;65.8
23253;BME280;11795;47.054;15.408;2023-08-07T07:22:01;96850;;;16.6;65.7
23253;BME280;11795;47.054;15.408;2023-08-07T07:24:01;96860;;;16.9;63.8
23253;BME280;11795;47.054;15.408;2023-08-07T07:26:00;96860;;;16.9;59.6
23253;BME280;11795;47.054;15.408;2023-08-07T07:28:00;96860;;;17.1;59.7
23253;BME280;11795;47.054;15.408;2023-08-07T07:30:00;96850;;;17.3;59.9
23253;BME280;11795;47.054;15.408;2023-08-07T07:32:00;96850;;;17.4;59.2
23253;BME280;11795;47.054;15.408;2023-08-07T07:34:00;96850;;;17.6;56.7
23253;BME280;11795;47.054;15.408;2023-08-07T07:36:01;96860;;;17.6;57.0
23253;BME280;11795;47.054;15.408;2023-08-07T07:38:00;96850;;;17.8;58.5
23253;BME280;11795;47.054;15.408;2023-08-07T07:40:00;96850;;;17.8;58.8
23253;BME280;11795;47.054;15.408;2023-08-07T07:42:01;96850;;;17.8;58.0
23253;BME280;11795;47.054;15.408;2023-08-07T07:44:02;96860;;;18.0;57.7
23253;BME280;11795;47.054;15.408;2023-08-07T07:46:00;96860;;;18.0;57.8
23253;BME280;11795;47.054;15.408;2023-08-07T07:48:00;96860;;;18.1;57.4
23253;BME280;11795;47.054;15.408;2023-08-07T07:50:05;96860;;;18.1;57.0
23253;BME280;11795;47.054;15.408;2023-08-07T07:52:00;96870;;;18.1;57.2
23253;BME280;11795;47.054;15.408;2023-08-07T07:54:01;96870;;;18.3;54.8
23253;BME280;11795;47.054;15.408;2023-08-07T07:56:00;96870;;;18.2;55.3
23253;BME280;11795;47.054;15.408;2023-08-07T07:58:00;96870;;;18.4;54.9
23253;BME280;11795;47.054;15.408;2023-08-07T08:00:01;96870;;;18.4;53.8
23253;BME280;11795;47.054;15.408;2023-08-07T08:02:01;96870;;;18.4;54.5
23253;BME280;11795;47.054;15.408;2023-08-07T08:04:00;96880;;;18.6;53.6
23253;BME280;11795;47.054;15.408;2023-08-07T08:06:00;96880;;;18.4;51.5
23253;BME280;11795;47.054;15.408;2023-08-07T08:08:01;96880;;;18.6;52.9
23253;BME280;11795;47.054;15.408;2023-08-07T08:10:00;96890;;;18.6;52.8
23253;BME280;11795;47.054;15.408;2023-08-07T08:12:00;96890;;;18.5;52.4
23253;BME280;11795;47.054;15.408;2023-08-07T08:14:00;96890;;;18.8;52.2
23253;BME280;11795;47.054;15.408;2023-08-07T08:16:00;96890;;;18.7;53.3
23253;BME280;11795;47.054;15.408;2023-08-07T08:18:00;96890;;;18.8;52.3
23253;BME280;11795;47.054;15.408;2023-08-07T08:20:00;96900;;;18.9;51.8
23253;BME280;11795;47.054;15.408;2023-08-07T08:22:00;96900;;;19.0;51.8
23253;BME280;11795;47.054;15.408;2023-08-07T08:24:00;96900;;;19.2;51.8
23253;BME280;11795;47.054;15.408;2023-08-07T08:26:01;96900;;;19.4;52.5
23253;BME280;11795;47.054;15.408;2023-08-07T08:28:00;96900;;;19.7;51.8
23253;BME280;11795;47.054;15.408;2023-08-07T08:30:01;96900;;;19.9;51.4
23253;BME280;11795;47.054;15.408;2023-08-07T08:32:00;96900;;;20.0;48.5
23253;BME280;11795;47.054;15.408;2023-08-07T08:34:00;96910;;;20.3;48.4
23253;BME280;11795;47.054;15.408;2023-08-07T08:36:00;96910;;;20.4;46.0
23253;BME280;11795;47.054;15.408;2023-08-07T08:38:00;96910;;;20.4;43.9
23253;BME280;11795;47.054;15.408;2023-08-07T08:40:01;96910;;;20.3;45.2
23253;BME280;11795;47.054;15.408;2023-08-07T08:42:00;96910;;;20.3;45.7
23253;BME280;11795;47.054;15.408;2023-08-07T08:44:01;96910;;;20.7;46.6
23253;BME280;11795;47.054;15.408;2023-08-07T08:46:01;96900;;;20.8;46.3
23253;BME280;11795;47.054;15.408;2023-08-07T08:48:02;96900;;;21.0;45.4
23253;BME280;11795;47.054;15.408;2023-08-07T08:50:02;96900;;;21.1;44.4
23253;BME280;11795;47.054;15.408;2023-08-07T08:52:01;96900;;;21.1;43.7
23253;BME280;11795;47.054;15.408;2023-08-07T08:54:02;96900;;;21.5;44.8
23253;BME280;11795;47.054;15.408;2023-08-07T08:56:01;96900;;;21.6;44.0
23253;BME280;11795;47.054;15.408;2023-08-07T08:58:01;96900;;;21.8;44.4
23253;BME280;11795;47.054;15.408;2023-08-07T09:00:01;96900;;;21.8;43.0
23253;BME280;11795;47.054;15.408;2023-08-07T09:02:00;96910;;;21.7;42.4
23253;BME280;11795;47.054;15.408;2023-08-07T09:04:01;96910;;;22.0;43.0
23253;BME280;11795;47.054;15.408;2023-08-07T09:06:00;96920;;;21.8;42.3
23253;BME280;11795;47.054;15.408;2023-08-07T09:08:01;96920;;;21.9;42.2
23253;BME280;11795;47.054;15.408;2023-08-07T09:10:01;96900;;;22.1;38.0
23253;BME280;11795;47.054;15.408;2023-08-07T09:12:01;96910;;;22.1;38.2
23253;BME280;11795;47.054;15.408;2023-08-07T09:14:02;96910;;;22.4;39.0
23253;BME280;11795;47.054;15.408;2023-08-07T09:16:01;96910;;;22.3;38.8
23253;BME280;11795;47.054;15.408;2023-08-07T09:18:02;96910;;;22.3;36.5
23253;BME280;11795;47.054;15.408;2023-08-07T09:20:01;96910;;;22.3;35.9
23253;BME280;11795;47.054;15.408;2023-08-07T09:22:01;96910;;;22.1;35.1
23253;BME280;11795;47.054;15.408;2023-08-07T09:24:00;96910;;;22.3;36.2
23253;BME280;11795;47.054;15.408;2023-08-07T09:26:01;96920;;;22.1;36.5
23253;BME280;11795;47.054;15.408;2023-08-07T09:28:01;96910;;;22.0;36.7
23253;BME280;11795;47.054;15.408;2023-08-07T09:30:01;96920;;;22.0;39.1
23253;BME280;11795;47.054;15.408;2023-08-07T09:32:06;96920;;;22.0;37.9
23253;BME280;11795;47.054;15.408;2023-08-07T09:34:01;96930;;;22.1;36.7
23253;BME280;11795;47.054;15.408;2023-08-07T09:36:01;96930;;;22.0;34.8
23253;BME280;11795;47.054;15.408;2023-08-07T09:38:01;96930;;;21.9;35.3
23253;BME280;11795;47.054;15.408;2023-08-07T09:40:01;96930;;;21.9;35.3
23253;BME280;11795;47.054;15.408;2023-08-07T09:42:00;96930;;;21.9;37.3
23253;BME280;11795;47.054;15.408;2023-08-07T09:44:06;96940;;;22.0;37.7
23253;BME280;11795;47.054;15.408;2023-08-07T09:46:02;96940;;;21.8;38.6
23253;BME280;11795;47.054;15.408;2023-08-07T09:48:01;96940;;;21.9;37.0
23253;BME280;11795;47.054;15.408;2023-08-07T09:50:00;96940;;;21.9;36.2
23253;BME280;11795;47.054;15.408;2023-08-07T09:52:05;96940;;;21.8;36.3
23253;BME280;11795;47.054;15.408;2023-08-07T09:54:00;96940;;;21.9;36.4
23253;BME280;11795;47.054;15.408;2023-08-07T09:56:01;96940;;;21.8;35.7
23253;BME280;11795;47.054;15.408;2023-08-07T09:58:01;96950;;;21.8;36.3
23253;BME280;11795;47.054;15.408;2023-08-07T10:00:00;96950;;;21.9;36.8
23253;BME280;11795;47.054;15.408;2023-08-07T10:02:02;96950;;;21.9;37.4
23253;BME280;11795;47.054;15.408;2023-08-07T10:04:00;96960;;;22.0;36.5
23253;BME280;11795;47.054;15.408;2023-08-07T10:06:01;96950;;;21.6;35.1
23253;BME280;11795;47.054;15.408;2023-08-07T10:08:01;96960;;;21.5;36.0
23253;BME280;11795;47.054;15.408;2023-08-07T10:10:02;96960;;;21.5;35.5
23253;BME280;11795;47.054;15.408;2023-08-07T10:12:01;96970;;;21.4;36.2
23253;BME280;11795;47.054;15.408;2023-08-07T10:14:01;96970;;;21.5;35.0
23253;BME280;11795;47.054;15.408;2023-08-07T10:16:00;96970;;;21.3;35.5
23253;BME280;11795;47.054;15.408;2023-08-07T10:18:01;96970;;;21.3;36.6
23253;BME280;11795;47.054;15.408;2023-08-07T10:20:01;96980;;;21.4;36.9
23253;BME280;11795;47.054;15.408;2023-08-07T10:22:02;96980;;;21.4;37.9
23253;BME280;11795;47.054;15.408;2023-08-07T10:24:03;96970;;;21.5;37.2
23253;BME280;11795;47.054;15.408;2023-08-07T10:26:01;96990;;;21.5;36.9
23253;BME280;11795;47.054;15.408;2023-08-07T10:28:01;96980;;;21.5;37.4
23253;BME280;11795;47.054;15.408;2023-08-07T10:30:04;97000;;;21.7;36.4
23253;BME280;11795;47.054;15.408;2023-08-07T10:32:01;96980;;;21.6;34.1
23253;BME280;11795;47.054;15.408;2023-08-07T10:34:01;96990;;;21.6;36.2
23253;BME280;11795;47.054;15.408;2023-08-07T10:36:08;96990;;;21.7;37.8
23253;BME280;11795;47.054;15.408;2023-08-07T10:38:06;96990;;;21.8;34.4
23253;BME280;11795;47.054;15.408;2023-08-07T10:40:01;96990;;;21.8;36.0
23253;BME280;11795;47.054;15.408;2023-08-07T10:42:01;96990;;;21.7;37.2
23253;BME280;11795;47.054;15.408;2023-08-07T10:44:02;96980;;;22.0;37.3
23253;BME280;11795;47.054;15.408;2023-08-07T10:46:04;96980;;;22.1;38.7
23253;BME280;11795;47.054;15.408;2023-08-07T10:48:01;96980;;;22.1;38.3
23253;BME280;11795;47.054;15.408;2023-08-07T10:50:00;96990;;;22.3;38.2
23253;BME280;11795;47.054;15.408;2023-08-07T10:52:03;97000;;;22.2;37.9
23253;BME280;11795;47.054;15.408;2023-08-07T10:54:01;96990;;;22.3;36.8
23253;BME280;11795;47.054;15.408;2023-08-07T10:56:02;96990;;;22.1;36.1
23253;BME280;11795;47.054;15.408;2023-08-07T10:58:00;97000;;;21.9;36.1
23253;BME280;11795;47.054;15.408;2023-08-07T11:00:02;97000;;;21.9;36.8
23253;BME280;11795;47.054;15.408;2023-08-07T11:02:00;97000;;;21.7;36.5
23253;BME280;11795;47.054;15.408;2023-08-07T11:04:06;97010;;;21.8;37.4
23253;BME280;11795;47.054;15.408;2023-08-07T11:06:00;97010;;;21.7;37.4
23253;BME280;11795;47.054;15.408;2023-08-07T11:08:00;97020;;;21.6;38.2
23253;BME280;11795;47.054;15.408;2023-08-07T11:10:00;97010;;;21.7;38.3